sensor_id;sensor_type;location;lat;lon;timestamp;pressure;altitude;pressure_sealevel;temperature;humidity
24160;BME280;62385;41.594;23.808;2023-04-30T00:00:32;95180.44;;;10.34;72.54
24160;BME280;62385;41.594;23.808;2023-04-30T00:02:57;95186.16;;;10.46;71.97
24160;BME280;62385;41.594;23.808;2023-04-30T00:05:23;95191.50;;;10.60;71.34
24160;BME280;62385;41.594;23.808;2023-04-30T00:07:48;95189.00;;;10.44;71.71
24160;BME280;62385;41.594;23.808;2023-04-30T00:10:14;95190.28;;;10.26;71.93
24160;BME280;62385;41.594;23.808;2023-04-30T00:12:39;95184.94;;;10.34;71.72
24160;BME280;62385;41.594;23.808;2023-04-30T00:15:07;95181.84;;;10.45;71.40
24160;BME280;62385;41.594;23.808;2023-04-30T00:17:32;95176.81;;;10.35;71.83
24160;BME280;62385;41.594;23.808;2023-04-30T00:19:58;95189.16;;;10.20;73.07
24160;BME280;62385;41.594;23.808;2023-04-30T00:22:24;95184.84;;;9.88;73.63
24160;BME280;62385;41.594;23.808;2023-04-30T00:24:49;95188.56;;;9.71;74.43
24160;BME280;62385;41.594;23.808;2023-04-30T00:27:15;95178.88;;;9.55;75.57
24160;BME280;62385;41.594;23.808;2023-04-30T00:29:41;95175.44;;;9.47;75.15
24160;BME280;62385;41.594;23.808;2023-04-30T00:32:07;95185.09;;;9.32;75.89
24160;BME280;62385;41.594;23.808;2023-04-30T00:34:33;95195.38;;;9.18;76.25
24160;BME280;62385;41.594;23.808;2023-04-30T00:36:59;95197.91;;;8.96;76.89
24160;BME280;62385;41.594;23.808;2023-04-30T00:39:26;95190.63;;;8.98;76.39
24160;BME280;62385;41.594;23.808;2023-04-30T00:41:52;95188.97;;;8.97;76.60
24160;BME280;62385;41.594;23.808;2023-04-30T00:44:17;95188.97;;;8.97;76.29
24160;BME280;62385;41.594;23.808;2023-04-30T00:46:43;95193.78;;;8.93;76.47
24160;BME280;62385;41.594;23.808;2023-04-30T00:49:09;95192.97;;;8.68;76.98
24160;BME280;62385;41.594;23.808;2023-04-30T00:51:35;95196.47;;;8.53;77.71
24160;BME280;62385;41.594;23.808;2023-04-30T00:54:01;95198.75;;;8.64;77.21
24160;BME280;62385;41.594;23.808;2023-04-30T00:56:28;95188.31;;;8.70;76.50
24160;BME280;62385;41.594;23.808;2023-04-30T00:58:55;95182.03;;;8.79;75.81
24160;BME280;62385;41.594;23.808;2023-04-30T01:01:26;95196.13;;;8.56;76.83
24160;BME280;62385;41.594;23.808;2023-04-30T01:03:56;95197.59;;;8.50;76.45
24160;BME280;62385;41.594;23.808;2023-04-30T01:06:22;95199.09;;;8.45;76.73
24160;BME280;62385;41.594;23.808;2023-04-30T01:08:50;95186.53;;;8.63;75.64
24160;BME280;62385;41.594;23.808;2023-04-30T01:16:32;95193.06;;;8.02;77.57
24160;BME280;62385;41.594;23.808;2023-04-30T01:19:04;95187.59;;;8.04;77.27
24160;BME280;62385;41.594;23.808;2023-04-30T01:21:37;95193.41;;;8.15;77.18
24160;BME280;62385;41.594;23.808;2023-04-30T01:27:30;95188.13;;;8.15;77.28
24160;BME280;62385;41.594;23.808;2023-04-30T01:29:58;95183.81;;;7.98;77.87
24160;BME280;62385;41.594;23.808;2023-04-30T01:32:26;95185.63;;;8.14;77.06
24160;BME280;62385;41.594;23.808;2023-04-30T01:34:51;95178.75;;;8.53;75.59
24160;BME280;62385;41.594;23.808;2023-04-30T01:42:41;95190.59;;;8.17;76.25
24160;BME280;62385;41.594;23.808;2023-04-30T01:48:30;95192.00;;;7.79;76.89
24160;BME280;62385;41.594;23.808;2023-04-30T01:53:41;95197.88;;;7.57;78.18
24160;BME280;62385;41.594;23.808;2023-04-30T01:56:20;95195.91;;;7.59;78.31
24160;BME280;62385;41.594;23.808;2023-04-30T01:58:51;95189.16;;;7.64;77.42
24160;BME280;62385;41.594;23.808;2023-04-30T02:01:29;95183.41;;;7.69;77.26
24160;BME280;62385;41.594;23.808;2023-04-30T02:03:57;95179.88;;;7.52;78.18
24160;BME280;62385;41.594;23.808;2023-04-30T02:06:24;95182.72;;;7.75;77.65
24160;BME280;62385;41.594;23.808;2023-04-30T02:08:54;95175.69;;;7.92;76.19
24160;BME280;62385;41.594;23.808;2023-04-30T02:11:30;95179.22;;;7.58;76.78
24160;BME280;62385;41.594;23.808;2023-04-30T02:13:56;95180.31;;;7.39;78.12
24160;BME280;62385;41.594;23.808;2023-04-30T02:16:22;95188.56;;;7.36;78.72
24160;BME280;62385;41.594;23.808;2023-04-30T02:18:48;95188.38;;;7.80;77.67
24160;BME280;62385;41.594;23.808;2023-04-30T02:21:14;95179.78;;;7.78;76.74
24160;BME280;62385;41.594;23.808;2023-04-30T02:23:39;95178.09;;;7.61;77.11
24160;BME280;62385;41.594;23.808;2023-04-30T02:26:06;95185.31;;;7.51;77.09
24160;BME280;62385;41.594;23.808;2023-04-30T02:28:32;95179.63;;;7.37;77.75
24160;BME280;62385;41.594;23.808;2023-04-30T02:30:58;95187.72;;;7.36;77.33
24160;BME280;62385;41.594;23.808;2023-04-30T02:33:24;95188.91;;;7.50;77.37
24160;BME280;62385;41.594;23.808;2023-04-30T02:35:50;95196.03;;;7.15;77.63
24160;BME280;62385;41.594;23.808;2023-04-30T02:38:16;95196.44;;;7.28;77.07
24160;BME280;62385;41.594;23.808;2023-04-30T02:40:42;95193.72;;;7.12;78.02
24160;BME280;62385;41.594;23.808;2023-04-30T02:43:08;95197.34;;;7.11;77.72
24160;BME280;62385;41.594;23.808;2023-04-30T02:45:34;95198.63;;;6.81;79.35
24160;BME280;62385;41.594;23.808;2023-04-30T02:48:00;95200.63;;;7.13;78.49
24160;BME280;62385;41.594;23.808;2023-04-30T02:50:27;95207.50;;;6.98;78.43
24160;BME280;62385;41.594;23.808;2023-04-30T02:52:53;95208.88;;;6.84;79.52
24160;BME280;62385;41.594;23.808;2023-04-30T02:55:20;95200.13;;;6.84;78.94
24160;BME280;62385;41.594;23.808;2023-04-30T02:57:46;95204.47;;;7.19;77.95
24160;BME280;62385;41.594;23.808;2023-04-30T03:00:12;95202.66;;;7.19;77.87
24160;BME280;62385;41.594;23.808;2023-04-30T03:02:37;95195.69;;;6.84;78.46
24160;BME280;62385;41.594;23.808;2023-04-30T03:05:03;95212.34;;;6.85;79.33
24160;BME280;62385;41.594;23.808;2023-04-30T03:07:29;95205.97;;;6.70;79.65
24160;BME280;62385;41.594;23.808;2023-04-30T03:09:55;95213.25;;;6.76;79.22
24160;BME280;62385;41.594;23.808;2023-04-30T03:12:20;95209.97;;;6.74;79.85
24160;BME280;62385;41.594;23.808;2023-04-30T03:14:46;95214.28;;;6.75;78.60
24160;BME280;62385;41.594;23.808;2023-04-30T03:17:12;95213.19;;;6.85;78.52
24160;BME280;62385;41.594;23.808;2023-04-30T03:19:38;95209.25;;;6.89;78.38
24160;BME280;62385;41.594;23.808;2023-04-30T03:22:03;95221.16;;;7.19;77.74
24160;BME280;62385;41.594;23.808;2023-04-30T03:24:29;95221.34;;;7.00;78.06
24160;BME280;62385;41.594;23.808;2023-04-30T03:26:55;95217.13;;;7.07;77.79
24160;BME280;62385;41.594;23.808;2023-04-30T03:29:21;95219.56;;;7.09;77.84
24160;BME280;62385;41.594;23.808;2023-04-30T03:31:47;95216.22;;;7.24;77.19
24160;BME280;62385;41.594;23.808;2023-04-30T03:34:12;95210.81;;;7.34;76.82
24160;BME280;62385;41.594;23.808;2023-04-30T03:36:39;95218.19;;;7.22;78.04
24160;BME280;62385;41.594;23.808;2023-04-30T03:39:04;95224.81;;;7.01;77.42
24160;BME280;62385;41.594;23.808;2023-04-30T03:41:30;95225.22;;;6.88;78.68
24160;BME280;62385;41.594;23.808;2023-04-30T03:43:56;95219.94;;;7.14;77.44
24160;BME280;62385;41.594;23.808;2023-04-30T03:46:21;95235.22;;;7.02;77.97
24160;BME280;62385;41.594;23.808;2023-04-30T03:48:47;95235.13;;;7.12;77.76
24160;BME280;62385;41.594;23.808;2023-04-30T03:51:12;95240.09;;;7.15;77.56
24160;BME280;62385;41.594;23.808;2023-04-30T03:53:38;95243.09;;;6.94;77.64
24160;BME280;62385;41.594;23.808;2023-04-30T03:56:05;95239.53;;;7.03;77.75
24160;BME280;62385;41.594;23.808;2023-04-30T03:58:31;95238.34;;;6.80;79.16
24160;BME280;62385;41.594;23.808;2023-04-30T04:00:56;95239.31;;;6.53;78.94
24160;BME280;62385;41.594;23.808;2023-04-30T04:03:23;95238.16;;;6.73;78.85
24160;BME280;62385;41.594;23.808;2023-04-30T04:05:48;95251.72;;;6.78;78.81
24160;BME280;62385;41.594;23.808;2023-04-30T04:08:14;95248.94;;;7.06;78.49
24160;BME280;62385;41.594;23.808;2023-04-30T04:10:40;95239.56;;;7.37;77.39
24160;BME280;62385;41.594;23.808;2023-04-30T04:13:07;95249.31;;;7.11;77.88
24160;BME280;62385;41.594;23.808;2023-04-30T04:15:34;95239.81;;;7.26;78.23
24160;BME280;62385;41.594;23.808;2023-04-30T04:18:00;95242.91;;;7.47;77.61
24160;BME280;62385;41.594;23.808;2023-04-30T04:20:26;95235.16;;;7.54;77.45
24160;BME280;62385;41.594;23.808;2023-04-30T04:22:52;95235.28;;;7.78;76.29
24160;BME280;62385;41.594;23.808;2023-04-30T04:25:18;95247.56;;;7.53;77.56
24160;BME280;62385;41.594;23.808;2023-04-30T04:27:44;95232.75;;;7.68;77.74
24160;BME280;62385;41.594;23.808;2023-04-30T04:30:10;95245.94;;;8.02;76.42
24160;BME280;62385;41.594;23.808;2023-04-30T04:32:38;95232.25;;;8.23;76.31
24160;BME280;62385;41.594;23.808;2023-04-30T04:35:13;95242.75;;;8.57;75.74
24160;BME280;62385;41.594;23.808;2023-04-30T04:37:39;95242.75;;;8.65;75.68
24160;BME280;62385;41.594;23.808;2023-04-30T04:40:06;95243.41;;;8.59;76.37
24160;BME280;62385;41.594;23.808;2023-04-30T04:42:32;95246.88;;;9.08;75.12
24160;BME280;62385;41.594;23.808;2023-04-30T04:44:57;95247.34;;;9.19;74.42
24160;BME280;62385;41.594;23.808;2023-04-30T04:47:24;95252.78;;;9.42;74.26
24160;BME280;62385;41.594;23.808;2023-04-30T04:49:50;95256.41;;;9.41;74.80
24160;BME280;62385;41.594;23.808;2023-04-30T04:52:15;95259.19;;;9.64;74.81
24160;BME280;62385;41.594;23.808;2023-04-30T04:54:41;95250.94;;;9.51;75.20
24160;BME280;62385;41.594;23.808;2023-04-30T04:57:07;95263.81;;;9.54;74.70
24160;BME280;62385;41.594;23.808;2023-04-30T04:59:32;95259.84;;;9.58;74.63
24160;BME280;62385;41.594;23.808;2023-04-30T05:01:58;95255.22;;;9.60;74.77
24160;BME280;62385;41.594;23.808;2023-04-30T05:04:23;95250.19;;;9.65;75.18
24160;BME280;62385;41.594;23.808;2023-04-30T05:06:49;95258.66;;;9.68;75.46
24160;BME280;62385;41.594;23.808;2023-04-30T05:09:15;95265.00;;;9.51;75.26
24160;BME280;62385;41.594;23.808;2023-04-30T05:11:41;95256.34;;;9.65;75.16
24160;BME280;62385;41.594;23.808;2023-04-30T05:14:08;95260.16;;;9.63;75.14
24160;BME280;62385;41.594;23.808;2023-04-30T05:16:34;95252.19;;;9.71;75.09
24160;BME280;62385;41.594;23.808;2023-04-30T05:18:59;95264.47;;;9.64;74.86
24160;BME280;62385;41.594;23.808;2023-04-30T05:21:25;95269.94;;;9.62;75.37
24160;BME280;62385;41.594;23.808;2023-04-30T05:23:51;95270.59;;;9.72;74.52
24160;BME280;62385;41.594;23.808;2023-04-30T05:26:16;95263.09;;;9.76;74.39
24160;BME280;62385;41.594;23.808;2023-04-30T05:28:42;95263.75;;;9.78;75.13
24160;BME280;62385;41.594;23.808;2023-04-30T05:31:07;95266.69;;;9.91;73.89
24160;BME280;62385;41.594;23.808;2023-04-30T05:33:33;95271.09;;;10.07;73.38
24160;BME280;62385;41.594;23.808;2023-04-30T05:36:01;95272.22;;;10.12;73.95
24160;BME280;62385;41.594;23.808;2023-04-30T05:38:27;95270.75;;;10.10;73.79
24160;BME280;62385;41.594;23.808;2023-04-30T05:40:52;95267.44;;;10.16;73.61
24160;BME280;62385;41.594;23.808;2023-04-30T05:43:18;95267.88;;;10.28;74.17
24160;BME280;62385;41.594;23.808;2023-04-30T05:45:43;95263.19;;;10.60;72.68
24160;BME280;62385;41.594;23.808;2023-04-30T05:48:09;95264.59;;;10.48;72.94
24160;BME280;62385;41.594;23.808;2023-04-30T05:50:34;95262.88;;;10.33;74.05
24160;BME280;62385;41.594;23.808;2023-04-30T05:53:00;95261.41;;;10.30;73.20
24160;BME280;62385;41.594;23.808;2023-04-30T05:55:26;95261.16;;;10.40;72.69
24160;BME280;62385;41.594;23.808;2023-04-30T05:57:51;95260.59;;;10.98;71.53
24160;BME280;62385;41.594;23.808;2023-04-30T06:00:17;95261.19;;;11.08;70.04
24160;BME280;62385;41.594;23.808;2023-04-30T06:02:43;95260.19;;;11.09;69.25
24160;BME280;62385;41.594;23.808;2023-04-30T06:05:08;95253.41;;;11.21;70.38
24160;BME280;62385;41.594;23.808;2023-04-30T06:07:34;95254.44;;;11.35;71.02
24160;BME280;62385;41.594;23.808;2023-04-30T06:09:59;95251.44;;;11.52;71.30
24160;BME280;62385;41.594;23.808;2023-04-30T06:12:26;95248.28;;;11.72;69.66
24160;BME280;62385;41.594;23.808;2023-04-30T06:14:52;95245.25;;;11.75;69.12
24160;BME280;62385;41.594;23.808;2023-04-30T06:17:17;95251.75;;;11.87;69.06
24160;BME280;62385;41.594;23.808;2023-04-30T06:19:43;95255.97;;;11.81;69.38
24160;BME280;62385;41.594;23.808;2023-04-30T06:22:09;95252.38;;;11.89;68.88
24160;BME280;62385;41.594;23.808;2023-04-30T06:24:34;95245.34;;;11.96;68.59
24160;BME280;62385;41.594;23.808;2023-04-30T06:27:00;95244.06;;;11.92;68.07
24160;BME280;62385;41.594;23.808;2023-04-30T06:29:25;95240.38;;;11.93;68.41
24160;BME280;62385;41.594;23.808;2023-04-30T06:31:52;95232.47;;;11.85;68.36
24160;BME280;62385;41.594;23.808;2023-04-30T06:34:18;95239.91;;;12.40;67.75
24160;BME280;62385;41.594;23.808;2023-04-30T06:36:44;95229.25;;;12.55;66.15
24160;BME280;62385;41.594;23.808;2023-04-30T06:39:10;95222.38;;;12.45;65.84
24160;BME280;62385;41.594;23.808;2023-04-30T06:41:35;95222.00;;;12.13;64.74
24160;BME280;62385;41.594;23.808;2023-04-30T06:44:08;95211.38;;;12.70;64.50
24160;BME280;62385;41.594;23.808;2023-04-30T06:46:34;95221.88;;;12.57;65.13
24160;BME280;62385;41.594;23.808;2023-04-30T06:48:59;95222.97;;;12.83;62.97
24160;BME280;62385;41.594;23.808;2023-04-30T06:51:25;95221.06;;;13.20;62.74
24160;BME280;62385;41.594;23.808;2023-04-30T06:53:51;95217.81;;;13.24;62.58
24160;BME280;62385;41.594;23.808;2023-04-30T06:56:18;95219.84;;;13.22;62.84
24160;BME280;62385;41.594;23.808;2023-04-30T06:58:46;95215.88;;;13.39;61.46
24160;BME280;62385;41.594;23.808;2023-04-30T07:01:12;95211.28;;;13.33;60.94
24160;BME280;62385;41.594;23.808;2023-04-30T07:03:37;95210.72;;;13.38;61.33
24160;BME280;62385;41.594;23.808;2023-04-30T07:06:03;95214.34;;;13.58;60.09
24160;BME280;62385;41.594;23.808;2023-04-30T07:08:29;95213.44;;;13.79;59.68
24160;BME280;62385;41.594;23.808;2023-04-30T07:10:55;95207.63;;;13.62;60.65
24160;BME280;62385;41.594;23.808;2023-04-30T07:13:20;95209.31;;;13.76;60.94
24160;BME280;62385;41.594;23.808;2023-04-30T07:15:46;95210.53;;;14.15;60.56
24160;BME280;62385;41.594;23.808;2023-04-30T07:18:11;95195.81;;;14.32;59.71
24160;BME280;62385;41.594;23.808;2023-04-30T07:20:37;95209.03;;;14.40;59.59
24160;BME280;62385;41.594;23.808;2023-04-30T07:23:03;95208.84;;;14.48;58.35
24160;BME280;62385;41.594;23.808;2023-04-30T07:25:29;95208.03;;;14.54;57.48
24160;BME280;62385;41.594;23.808;2023-04-30T07:27:55;95205.34;;;14.54;57.82
24160;BME280;62385;41.594;23.808;2023-04-30T07:30:20;95210.56;;;14.82;58.19
24160;BME280;62385;41.594;23.808;2023-04-30T07:32:46;95206.22;;;14.88;59.73
24160;BME280;62385;41.594;23.808;2023-04-30T07:35:12;95209.53;;;15.16;57.91
24160;BME280;62385;41.594;23.808;2023-04-30T07:37:39;95206.66;;;14.98;57.89
24160;BME280;62385;41.594;23.808;2023-04-30T07:40:06;95204.41;;;15.08;56.77
24160;BME280;62385;41.594;23.808;2023-04-30T07:42:40;95198.66;;;15.17;57.06
24160;BME280;62385;41.594;23.808;2023-04-30T07:45:06;95198.44;;;15.58;55.53
24160;BME280;62385;41.594;23.808;2023-04-30T07:47:33;95191.84;;;15.28;57.03
24160;BME280;62385;41.594;23.808;2023-04-30T07:49:59;95201.50;;;15.68;55.93
24160;BME280;62385;41.594;23.808;2023-04-30T07:52:24;95195.31;;;15.81;55.25
24160;BME280;62385;41.594;23.808;2023-04-30T07:54:50;95192.88;;;15.47;55.10
24160;BME280;62385;41.594;23.808;2023-04-30T07:57:16;95200.28;;;15.58;55.21
24160;BME280;62385;41.594;23.808;2023-04-30T07:59:41;95196.91;;;16.02;53.45
24160;BME280;62385;41.594;23.808;2023-04-30T08:02:08;95192.88;;;16.24;53.59
24160;BME280;62385;41.594;23.808;2023-04-30T08:04:34;95182.78;;;16.26;52.48
24160;BME280;62385;41.594;23.808;2023-04-30T08:07:00;95191.38;;;16.41;51.79
24160;BME280;62385;41.594;23.808;2023-04-30T08:09:29;95169.25;;;16.59;52.42
24160;BME280;62385;41.594;23.808;2023-04-30T08:11:56;95181.09;;;16.76;50.90
24160;BME280;62385;41.594;23.808;2023-04-30T08:14:22;95181.03;;;16.83;49.72
24160;BME280;62385;41.594;23.808;2023-04-30T08:16:47;95180.19;;;16.89;50.07
24160;BME280;62385;41.594;23.808;2023-04-30T08:19:13;95177.94;;;16.48;50.77
24160;BME280;62385;41.594;23.808;2023-04-30T08:21:38;95177.22;;;16.66;51.77
24160;BME280;62385;41.594;23.808;2023-04-30T08:24:04;95179.81;;;16.47;52.58
24160;BME280;62385;41.594;23.808;2023-04-30T08:26:30;95167.78;;;16.56;52.41
24160;BME280;62385;41.594;23.808;2023-04-30T08:28:55;95175.63;;;16.58;52.02
24160;BME280;62385;41.594;23.808;2023-04-30T08:31:21;95162.47;;;16.88;51.88
24160;BME280;62385;41.594;23.808;2023-04-30T08:33:46;95159.31;;;17.22;51.09
24160;BME280;62385;41.594;23.808;2023-04-30T08:36:13;95163.41;;;17.00;51.65
24160;BME280;62385;41.594;23.808;2023-04-30T08:38:39;95157.66;;;16.96;50.24
24160;BME280;62385;41.594;23.808;2023-04-30T08:41:10;95152.94;;;17.84;48.20
24160;BME280;62385;41.594;23.808;2023-04-30T08:43:42;95152.41;;;17.94;48.87
24160;BME280;62385;41.594;23.808;2023-04-30T08:46:10;95148.94;;;17.50;48.77
24160;BME280;62385;41.594;23.808;2023-04-30T08:48:37;95152.81;;;17.54;48.03
24160;BME280;62385;41.594;23.808;2023-04-30T08:51:04;95147.84;;;17.58;48.69
24160;BME280;62385;41.594;23.808;2023-04-30T08:53:30;95151.28;;;17.40;48.02
24160;BME280;62385;41.594;23.808;2023-04-30T08:55:58;95148.75;;;17.45;47.54
24160;BME280;62385;41.594;23.808;2023-04-30T08:58:24;95143.47;;;17.64;47.83
24160;BME280;62385;41.594;23.808;2023-04-30T09:00:50;95144.81;;;18.09;47.54
24160;BME280;62385;41.594;23.808;2023-04-30T09:03:15;95144.00;;;18.38;45.81
24160;BME280;62385;41.594;23.808;2023-04-30T09:05:41;95138.13;;;18.60;47.60
24160;BME280;62385;41.594;23.808;2023-04-30T09:08:07;95144.06;;;18.80;48.17
24160;BME280;62385;41.594;23.808;2023-04-30T09:10:34;95144.03;;;18.02;43.69
24160;BME280;62385;41.594;23.808;2023-04-30T09:13:05;95129.88;;;17.77;44.60
24160;BME280;62385;41.594;23.808;2023-04-30T09:15:33;95129.63;;;18.15;44.58
24160;BME280;62385;41.594;23.808;2023-04-30T09:20:56;95126.47;;;18.66;47.65
24160;BME280;62385;41.594;23.808;2023-04-30T09:23:23;95115.69;;;18.06;46.61
24160;BME280;62385;41.594;23.808;2023-04-30T09:25:49;95117.41;;;17.82;46.29
24160;BME280;62385;41.594;23.808;2023-04-30T09:28:14;95113.38;;;17.91;46.43
24160;BME280;62385;41.594;23.808;2023-04-30T09:30:41;95113.47;;;18.33;44.87
24160;BME280;62385;41.594;23.808;2023-04-30T09:33:07;95108.28;;;18.20;43.64
24160;BME280;62385;41.594;23.808;2023-04-30T09:35:34;95105.19;;;18.34;43.72
24160;BME280;62385;41.594;23.808;2023-04-30T09:38:01;95108.00;;;18.58;43.30
24160;BME280;62385;41.594;23.808;2023-04-30T09:40:40;95094.66;;;19.16;42.72
24160;BME280;62385;41.594;23.808;2023-04-30T09:43:07;95084.03;;;19.44;41.33
24160;BME280;62385;41.594;23.808;2023-04-30T09:45:43;95076.28;;;19.48;42.95
24160;BME280;62385;41.594;23.808;2023-04-30T09:48:17;95076.03;;;19.61;41.47
24160;BME280;62385;41.594;23.808;2023-04-30T09:50:43;95079.69;;;19.43;40.19
24160;BME280;62385;41.594;23.808;2023-04-30T09:53:13;95062.75;;;19.94;40.31
24160;BME280;62385;41.594;23.808;2023-04-30T09:55:42;95075.22;;;19.25;39.83
24160;BME280;62385;41.594;23.808;2023-04-30T09:58:09;95061.78;;;19.25;41.07
24160;BME280;62385;41.594;23.808;2023-04-30T10:00:35;95061.19;;;19.47;40.35
24160;BME280;62385;41.594;23.808;2023-04-30T10:03:06;95053.56;;;19.32;39.16
24160;BME280;62385;41.594;23.808;2023-04-30T10:05:41;95054.63;;;19.43;41.48
24160;BME280;62385;41.594;23.808;2023-04-30T10:10:58;95050.91;;;19.95;41.34
24160;BME280;62385;41.594;23.808;2023-04-30T10:13:30;95055.00;;;19.46;39.22
24160;BME280;62385;41.594;23.808;2023-04-30T10:16:05;95052.53;;;19.21;39.73
24160;BME280;62385;41.594;23.808;2023-04-30T10:18:34;95049.22;;;19.66;39.23
24160;BME280;62385;41.594;23.808;2023-04-30T10:21:06;95037.56;;;19.89;38.90
24160;BME280;62385;41.594;23.808;2023-04-30T10:23:37;95051.69;;;19.56;41.44
24160;BME280;62385;41.594;23.808;2023-04-30T10:26:04;95043.16;;;19.99;42.12
24160;BME280;62385;41.594;23.808;2023-04-30T10:28:31;95030.97;;;20.36;39.56
24160;BME280;62385;41.594;23.808;2023-04-30T10:30:57;95035.84;;;21.17;39.25
24160;BME280;62385;41.594;23.808;2023-04-30T10:36:38;95038.81;;;20.54;37.52
24160;BME280;62385;41.594;23.808;2023-04-30T10:39:05;95027.34;;;20.31;37.41
24160;BME280;62385;41.594;23.808;2023-04-30T10:41:31;95041.47;;;20.09;39.12
24160;BME280;62385;41.594;23.808;2023-04-30T10:44:00;95030.75;;;20.88;35.44
24160;BME280;62385;41.594;23.808;2023-04-30T10:46:26;95030.94;;;20.98;37.94
24160;BME280;62385;41.594;23.808;2023-04-30T10:48:53;95017.03;;;20.89;36.42
24160;BME280;62385;41.594;23.808;2023-04-30T10:51:20;95029.47;;;20.90;37.08
24160;BME280;62385;41.594;23.808;2023-04-30T10:53:50;95020.28;;;20.41;35.47
24160;BME280;62385;41.594;23.808;2023-04-30T10:56:32;95019.03;;;19.92;36.85
24160;BME280;62385;41.594;23.808;2023-04-30T10:58:59;95021.78;;;20.65;38.09
24160;BME280;62385;41.594;23.808;2023-04-30T11:01:27;95011.13;;;20.59;36.74
24160;BME280;62385;41.594;23.808;2023-04-30T11:04:08;95007.56;;;20.70;35.31
24160;BME280;62385;41.594;23.808;2023-04-30T11:09:42;95008.41;;;21.64;36.56
24160;BME280;62385;41.594;23.808;2023-04-30T11:12:18;95005.66;;;22.02;35.18
24160;BME280;62385;41.594;23.808;2023-04-30T11:14:45;95000.31;;;22.34;37.99
24160;BME280;62385;41.594;23.808;2023-04-30T11:17:12;94995.72;;;21.86;37.11
24160;BME280;62385;41.594;23.808;2023-04-30T11:19:51;94989.34;;;22.19;35.01
24160;BME280;62385;41.594;23.808;2023-04-30T11:22:19;94991.03;;;21.98;35.79
24160;BME280;62385;41.594;23.808;2023-04-30T11:24:54;94990.28;;;22.08;35.40
24160;BME280;62385;41.594;23.808;2023-04-30T11:27:25;94993.28;;;21.08;38.45
24160;BME280;62385;41.594;23.808;2023-04-30T11:29:52;94986.22;;;20.23;37.75
24160;BME280;62385;41.594;23.808;2023-04-30T11:32:19;94991.50;;;20.47;38.14
24160;BME280;62385;41.594;23.808;2023-04-30T11:34:45;94986.44;;;21.17;37.17
24160;BME280;62385;41.594;23.808;2023-04-30T11:37:12;94983.28;;;21.25;36.42
24160;BME280;62385;41.594;23.808;2023-04-30T11:39:41;94981.50;;;21.31;36.30
24160;BME280;62385;41.594;23.808;2023-04-30T11:42:08;94979.13;;;21.56;37.34
24160;BME280;62385;41.594;23.808;2023-04-30T11:44:37;94975.56;;;20.95;37.61
24160;BME280;62385;41.594;23.808;2023-04-30T11:47:03;94986.81;;;21.09;36.53
24160;BME280;62385;41.594;23.808;2023-04-30T11:49:29;95007.28;;;21.60;35.31
24160;BME280;62385;41.594;23.808;2023-04-30T11:51:55;95023.66;;;19.80;33.89
24160;BME280;62385;41.594;23.808;2023-04-30T11:54:21;95016.19;;;19.59;35.27
24160;BME280;62385;41.594;23.808;2023-04-30T11:56:48;95022.91;;;19.45;35.46
24160;BME280;62385;41.594;23.808;2023-04-30T11:59:14;95030.03;;;18.81;36.33
24160;BME280;62385;41.594;23.808;2023-04-30T12:01:41;95025.13;;;18.78;35.79
24160;BME280;62385;41.594;23.808;2023-04-30T12:04:07;95022.25;;;18.50;37.94
24160;BME280;62385;41.594;23.808;2023-04-30T12:06:34;95032.03;;;18.32;37.57
24160;BME280;62385;41.594;23.808;2023-04-30T12:09:00;95030.91;;;18.52;37.55
24160;BME280;62385;41.594;23.808;2023-04-30T12:11:30;95012.41;;;19.08;35.16
24160;BME280;62385;41.594;23.808;2023-04-30T12:14:04;95006.44;;;19.81;35.86
24160;BME280;62385;41.594;23.808;2023-04-30T12:16:48;95015.66;;;18.99;38.42
24160;BME280;62385;41.594;23.808;2023-04-30T12:19:15;94992.56;;;19.61;36.50
24160;BME280;62385;41.594;23.808;2023-04-30T12:21:42;95009.19;;;19.98;34.95
24160;BME280;62385;41.594;23.808;2023-04-30T12:24:16;94991.19;;;20.43;32.83
24160;BME280;62385;41.594;23.808;2023-04-30T12:26:42;94990.22;;;20.66;35.97
24160;BME280;62385;41.594;23.808;2023-04-30T12:29:16;94993.97;;;20.82;33.51
24160;BME280;62385;41.594;23.808;2023-04-30T12:31:43;94992.97;;;20.71;32.06
24160;BME280;62385;41.594;23.808;2023-04-30T12:34:11;94978.09;;;20.85;30.39
24160;BME280;62385;41.594;23.808;2023-04-30T12:36:39;94983.28;;;20.53;30.57
24160;BME280;62385;41.594;23.808;2023-04-30T12:41:42;94977.56;;;20.50;31.98
24160;BME280;62385;41.594;23.808;2023-04-30T12:44:17;94982.81;;;19.08;38.10
24160;BME280;62385;41.594;23.808;2023-04-30T12:46:44;94991.09;;;18.60;42.14
24160;BME280;62385;41.594;23.808;2023-04-30T12:49:11;94980.47;;;19.00;42.37
24160;BME280;62385;41.594;23.808;2023-04-30T12:51:37;94983.53;;;18.92;41.51
24160;BME280;62385;41.594;23.808;2023-04-30T12:54:05;94995.44;;;18.73;40.23
24160;BME280;62385;41.594;23.808;2023-04-30T12:56:31;94975.91;;;19.01;40.32
24160;BME280;62385;41.594;23.808;2023-04-30T12:58:56;94995.78;;;18.76;41.06
24160;BME280;62385;41.594;23.808;2023-04-30T13:01:23;94991.63;;;19.67;40.11
24160;BME280;62385;41.594;23.808;2023-04-30T13:03:50;94991.59;;;20.23;39.10
24160;BME280;62385;41.594;23.808;2023-04-30T13:06:16;94982.38;;;21.58;38.70
24160;BME280;62385;41.594;23.808;2023-04-30T13:08:43;94998.13;;;20.11;39.90
24160;BME280;62385;41.594;23.808;2023-04-30T13:11:08;94991.28;;;21.15;38.69
24160;BME280;62385;41.594;23.808;2023-04-30T13:13:34;94993.34;;;21.30;39.96
24160;BME280;62385;41.594;23.808;2023-04-30T13:16:01;94995.66;;;20.38;40.54
24160;BME280;62385;41.594;23.808;2023-04-30T13:18:31;94995.19;;;20.41;42.54
24160;BME280;62385;41.594;23.808;2023-04-30T13:20:57;94999.72;;;19.95;42.31
24160;BME280;62385;41.594;23.808;2023-04-30T13:23:22;95002.66;;;19.30;40.64
24160;BME280;62385;41.594;23.808;2023-04-30T13:25:48;95006.50;;;19.98;41.77